sensor_id;sensor_type;location;lat;lon;timestamp;temperature;humidity
18694;DHT22;9477;51.414;10.362;2024-03-02T00:01:07;12.20;98.80
18694;DHT22;9477;51.414;10.362;2024-03-02T00:03:12;12.20;98.60
18694;DHT22;9477;51.414;10.362;2024-03-02T00:05:18;12.10;98.60
18694;DHT22;9477;51.414;10.362;2024-03-02T00:07:21;12.00;98.60
18694;DHT22;9477;51.414;10.362;2024-03-02T00:09:26;12.00;98.70
18694;DHT22;9477;51.414;10.362;2024-03-02T00:11:29;12.00;98.80
18694;DHT22;9477;51.414;10.362;2024-03-02T00:13:31;12.00;98.70
18694;DHT22;9477;51.414;10.362;2024-03-02T00:15:42;12.00;98.70
18694;DHT22;9477;51.414;10.362;2024-03-02T00:17:53;12.00;98.70
18694;DHT22;9477;51.414;10.362;2024-03-02T00:19:56;12.00;98.70
18694;DHT22;9477;51.414;10.362;2024-03-02T00:22:02;12.00;98.70
18694;DHT22;9477;51.414;10.362;2024-03-02T00:24:18;12.00;98.70
18694;DHT22;9477;51.414;10.362;2024-03-02T00:26:23;12.00;98.80
18694;DHT22;9477;51.414;10.362;2024-03-02T00:28:27;12.00;98.80
18694;DHT22;9477;51.414;10.362;2024-03-02T00:30:51;12.00;99.10
18694;DHT22;9477;51.414;10.362;2024-03-02T00:32:54;11.90;98.80
18694;DHT22;9477;51.414;10.362;2024-03-02T00:34:57;11.90;98.80
18694;DHT22;9477;51.414;10.362;2024-03-02T00:36:59;12.00;98.90
18694;DHT22;9477;51.414;10.362;2024-03-02T00:39:04;11.90;98.80
18694;DHT22;9477;51.414;10.362;2024-03-02T00:41:16;11.90;98.70
18694;DHT22;9477;51.414;10.362;2024-03-02T00:43:42;11.90;98.80
18694;DHT22;9477;51.414;10.362;2024-03-02T00:45:48;11.80;98.80
18694;DHT22;9477;51.414;10.362;2024-03-02T00:47:51;11.70;98.90
18694;DHT22;9477;51.414;10.362;2024-03-02T00:49:54;11.70;99.00
18694;DHT22;9477;51.414;10.362;2024-03-02T00:51:57;11.60;99.00
18694;DHT22;9477;51.414;10.362;2024-03-02T00:54:01;11.60;99.10
18694;DHT22;9477;51.414;10.362;2024-03-02T00:56:09;11.60;99.10
18694;DHT22;9477;51.414;10.362;2024-03-02T00:58:12;11.70;99.00
18694;DHT22;9477;51.414;10.362;2024-03-02T01:00:16;11.70;99.00
18694;DHT22;9477;51.414;10.362;2024-03-02T01:02:19;11.70;98.90
18694;DHT22;9477;51.414;10.362;2024-03-02T01:04:23;11.70;98.90
18694;DHT22;9477;51.414;10.362;2024-03-02T01:06:25;11.70;98.90
18694;DHT22;9477;51.414;10.362;2024-03-02T01:08:29;11.80;98.90
18694;DHT22;9477;51.414;10.362;2024-03-02T01:10:31;11.80;98.90
18694;DHT22;9477;51.414;10.362;2024-03-02T01:12:35;11.70;98.80
18694;DHT22;9477;51.414;10.362;2024-03-02T01:14:38;11.70;98.80
18694;DHT22;9477;51.414;10.362;2024-03-02T01:16:41;11.70;98.90
18694;DHT22;9477;51.414;10.362;2024-03-02T01:18:44;11.60;98.80
18694;DHT22;9477;51.414;10.362;2024-03-02T01:20:47;11.60;98.90
18694;DHT22;9477;51.414;10.362;2024-03-02T01:22:50;11.60;98.90
18694;DHT22;9477;51.414;10.362;2024-03-02T01:24:52;11.60;99.00
18694;DHT22;9477;51.414;10.362;2024-03-02T01:26:55;11.50;99.00
18694;DHT22;9477;51.414;10.362;2024-03-02T01:28:59;11.50;99.00
18694;DHT22;9477;51.414;10.362;2024-03-02T01:31:03;11.60;99.10
18694;DHT22;9477;51.414;10.362;2024-03-02T01:33:06;11.60;99.00
18694;DHT22;9477;51.414;10.362;2024-03-02T01:35:09;11.60;99.00
18694;DHT22;9477;51.414;10.362;2024-03-02T01:37:11;11.60;99.00
18694;DHT22;9477;51.414;10.362;2024-03-02T01:39:14;11.60;99.00
18694;DHT22;9477;51.414;10.362;2024-03-02T01:41:17;11.60;99.00
18694;DHT22;9477;51.414;10.362;2024-03-02T01:43:20;11.60;98.90
18694;DHT22;9477;51.414;10.362;2024-03-02T01:45:24;11.60;98.90
18694;DHT22;9477;51.414;10.362;2024-03-02T01:47:28;11.50;98.90
18694;DHT22;9477;51.414;10.362;2024-03-02T01:49:31;11.50;99.00
18694;DHT22;9477;51.414;10.362;2024-03-02T01:51:35;11.50;99.00
18694;DHT22;9477;51.414;10.362;2024-03-02T01:53:38;11.40;99.00
18694;DHT22;9477;51.414;10.362;2024-03-02T01:55:41;11.50;99.00
18694;DHT22;9477;51.414;10.362;2024-03-02T01:57:43;11.50;99.00
18694;DHT22;9477;51.414;10.362;2024-03-02T01:59:47;11.50;99.00
18694;DHT22;9477;51.414;10.362;2024-03-02T02:01:51;11.40;98.90
18694;DHT22;9477;51.414;10.362;2024-03-02T02:03:54;11.40;99.00
18694;DHT22;9477;51.414;10.362;2024-03-02T02:05:57;11.40;99.00
18694;DHT22;9477;51.414;10.362;2024-03-02T02:08:01;11.40;99.00
18694;DHT22;9477;51.414;10.362;2024-03-02T02:10:05;11.40;99.00
18694;DHT22;9477;51.414;10.362;2024-03-02T02:12:08;11.40;99.00
18694;DHT22;9477;51.414;10.362;2024-03-02T02:14:11;11.40;99.10
18694;DHT22;9477;51.414;10.362;2024-03-02T02:16:14;11.40;99.00
18694;DHT22;9477;51.414;10.362;2024-03-02T02:18:18;11.40;99.00
18694;DHT22;9477;51.414;10.362;2024-03-02T02:20:21;11.30;98.90
18694;DHT22;9477;51.414;10.362;2024-03-02T02:22:25;11.30;99.00
18694;DHT22;9477;51.414;10.362;2024-03-02T02:24:28;11.40;99.10
18694;DHT22;9477;51.414;10.362;2024-03-02T02:26:30;11.30;99.00
18694;DHT22;9477;51.414;10.362;2024-03-02T02:28:33;11.30;98.90
18694;DHT22;9477;51.414;10.362;2024-03-02T02:30:36;11.30;98.90
18694;DHT22;9477;51.414;10.362;2024-03-02T02:32:40;11.30;98.90
18694;DHT22;9477;51.414;10.362;2024-03-02T02:34:42;11.30;98.90
18694;DHT22;9477;51.414;10.362;2024-03-02T02:36:44;11.30;98.90
18694;DHT22;9477;51.414;10.362;2024-03-02T02:38:49;11.20;98.90
18694;DHT22;9477;51.414;10.362;2024-03-02T02:40:51;11.20;98.90
18694;DHT22;9477;51.414;10.362;2024-03-02T02:42:54;11.20;99.00
18694;DHT22;9477;51.414;10.362;2024-03-02T02:44:57;11.20;99.00
18694;DHT22;9477;51.414;10.362;2024-03-02T02:46:59;11.20;99.00
18694;DHT22;9477;51.414;10.362;2024-03-02T02:49:01;11.20;99.00
18694;DHT22;9477;51.414;10.362;2024-03-02T02:51:04;11.20;99.00
18694;DHT22;9477;51.414;10.362;2024-03-02T02:53:07;11.20;99.00
18694;DHT22;9477;51.414;10.362;2024-03-02T02:55:13;11.20;99.00
18694;DHT22;9477;51.414;10.362;2024-03-02T02:57:17;11.20;99.00
18694;DHT22;9477;51.414;10.362;2024-03-02T02:59:20;11.20;99.00
18694;DHT22;9477;51.414;10.362;2024-03-02T03:01:23;11.10;99.00
18694;DHT22;9477;51.414;10.362;2024-03-02T03:03:27;11.10;99.00
18694;DHT22;9477;51.414;10.362;2024-03-02T03:05:30;11.10;99.10
18694;DHT22;9477;51.414;10.362;2024-03-02T03:07:33;11.10;99.00
18694;DHT22;9477;51.414;10.362;2024-03-02T03:09:37;11.10;99.00
18694;DHT22;9477;51.414;10.362;2024-03-02T03:11:42;11.10;99.00
18694;DHT22;9477;51.414;10.362;2024-03-02T03:13:44;11.10;99.00
18694;DHT22;9477;51.414;10.362;2024-03-02T03:15:47;11.10;99.00
18694;DHT22;9477;51.414;10.362;2024-03-02T03:17:50;11.00;98.90
18694;DHT22;9477;51.414;10.362;2024-03-02T03:19:53;10.90;99.00
18694;DHT22;9477;51.414;10.362;2024-03-02T03:21:56;10.90;99.00
18694;DHT22;9477;51.414;10.362;2024-03-02T03:23:59;10.90;99.10
18694;DHT22;9477;51.414;10.362;2024-03-02T03:26:02;10.80;99.10
18694;DHT22;9477;51.414;10.362;2024-03-02T03:28:07;10.80;99.20
18694;DHT22;9477;51.414;10.362;2024-03-02T03:30:12;10.90;99.10
18694;DHT22;9477;51.414;10.362;2024-03-02T03:32:15;10.80;99.10
18694;DHT22;9477;51.414;10.362;2024-03-02T03:34:18;10.80;99.10
18694;DHT22;9477;51.414;10.362;2024-03-02T03:36:20;10.80;99.20
18694;DHT22;9477;51.414;10.362;2024-03-02T03:38:23;10.90;99.20
18694;DHT22;9477;51.414;10.362;2024-03-02T03:40:26;10.90;99.20
18694;DHT22;9477;51.414;10.362;2024-03-02T03:42:28;10.80;99.10
18694;DHT22;9477;51.414;10.362;2024-03-02T03:44:32;10.80;99.10
18694;DHT22;9477;51.414;10.362;2024-03-02T03:46:35;10.80;99.40
18694;DHT22;9477;51.414;10.362;2024-03-02T03:48:38;10.80;99.20
18694;DHT22;9477;51.414;10.362;2024-03-02T03:50:40;10.80;99.10
18694;DHT22;9477;51.414;10.362;2024-03-02T03:52:43;10.90;99.20
18694;DHT22;9477;51.414;10.362;2024-03-02T03:54:46;10.80;99.10
18694;DHT22;9477;51.414;10.362;2024-03-02T03:56:49;10.80;99.00
18694;DHT22;9477;51.414;10.362;2024-03-02T03:58:52;10.80;99.00
18694;DHT22;9477;51.414;10.362;2024-03-02T04:00:56;10.80;99.00
18694;DHT22;9477;51.414;10.362;2024-03-02T04:02:59;10.80;99.10
18694;DHT22;9477;51.414;10.362;2024-03-02T04:05:02;10.70;99.10
18694;DHT22;9477;51.414;10.362;2024-03-02T04:07:10;10.80;99.10
18694;DHT22;9477;51.414;10.362;2024-03-02T04:09:13;10.80;99.10
18694;DHT22;9477;51.414;10.362;2024-03-02T04:11:16;10.80;99.10
18694;DHT22;9477;51.414;10.362;2024-03-02T04:13:19;10.80;99.10
18694;DHT22;9477;51.414;10.362;2024-03-02T04:15:22;10.80;99.10
18694;DHT22;9477;51.414;10.362;2024-03-02T04:17:27;10.80;99.10
18694;DHT22;9477;51.414;10.362;2024-03-02T04:19:29;10.80;99.20
18694;DHT22;9477;51.414;10.362;2024-03-02T04:21:32;10.80;99.20
18694;DHT22;9477;51.414;10.362;2024-03-02T04:23:35;10.80;99.20
18694;DHT22;9477;51.414;10.362;2024-03-02T04:25:38;10.80;99.20
18694;DHT22;9477;51.414;10.362;2024-03-02T04:27:41;10.80;99.20
18694;DHT22;9477;51.414;10.362;2024-03-02T04:29:44;10.90;99.30
18694;DHT22;9477;51.414;10.362;2024-03-02T04:31:46;10.80;99.20
18694;DHT22;9477;51.414;10.362;2024-03-02T04:33:50;10.80;99.20
18694;DHT22;9477;51.414;10.362;2024-03-02T04:35:53;10.80;99.30
18694;DHT22;9477;51.414;10.362;2024-03-02T04:37:56;10.90;99.30
18694;DHT22;9477;51.414;10.362;2024-03-02T04:39:59;10.90;99.30
18694;DHT22;9477;51.414;10.362;2024-03-02T04:42:02;10.90;99.40
18694;DHT22;9477;51.414;10.362;2024-03-02T04:44:04;10.90;99.40
18694;DHT22;9477;51.414;10.362;2024-03-02T04:46:09;10.90;99.40
18694;DHT22;9477;51.414;10.362;2024-03-02T04:48:12;10.90;99.40
18694;DHT22;9477;51.414;10.362;2024-03-02T04:50:17;10.90;99.40
18694;DHT22;9477;51.414;10.362;2024-03-02T04:52:20;10.90;99.40
18694;DHT22;9477;51.414;10.362;2024-03-02T04:54:23;10.90;99.40
18694;DHT22;9477;51.414;10.362;2024-03-02T04:56:26;10.90;99.40
18694;DHT22;9477;51.414;10.362;2024-03-02T04:58:41;10.90;99.40
18694;DHT22;9477;51.414;10.362;2024-03-02T05:00:43;10.90;99.40
18694;DHT22;9477;51.414;10.362;2024-03-02T05:02:48;10.90;99.40
18694;DHT22;9477;51.414;10.362;2024-03-02T05:04:50;10.90;99.40
18694;DHT22;9477;51.414;10.362;2024-03-02T05:06:54;10.90;99.40
18694;DHT22;9477;51.414;10.362;2024-03-02T05:08:59;10.90;99.40
18694;DHT22;9477;51.414;10.362;2024-03-02T05:11:01;10.80;99.40
18694;DHT22;9477;51.414;10.362;2024-03-02T05:13:25;10.90;99.40
18694;DHT22;9477;51.414;10.362;2024-03-02T05:15:28;10.80;99.40
18694;DHT22;9477;51.414;10.362;2024-03-02T05:17:31;10.80;99.50
18694;DHT22;9477;51.414;10.362;2024-03-02T05:19:34;10.80;99.50
18694;DHT22;9477;51.414;10.362;2024-03-02T05:21:37;10.80;99.50
18694;DHT22;9477;51.414;10.362;2024-03-02T05:23:41;10.80;99.40
18694;DHT22;9477;51.414;10.362;2024-03-02T05:25:44;10.90;99.40
18694;DHT22;9477;51.414;10.362;2024-03-02T05:27:47;10.80;99.30
18694;DHT22;9477;51.414;10.362;2024-03-02T05:29:50;10.80;99.40
18694;DHT22;9477;51.414;10.362;2024-03-02T05:31:53;10.80;99.40
18694;DHT22;9477;51.414;10.362;2024-03-02T05:33:55;10.70;99.40
18694;DHT22;9477;51.414;10.362;2024-03-02T05:35:59;10.80;99.50
18694;DHT22;9477;51.414;10.362;2024-03-02T05:38:03;10.80;99.40
18694;DHT22;9477;51.414;10.362;2024-03-02T05:40:09;10.70;99.40
18694;DHT22;9477;51.414;10.362;2024-03-02T05:42:13;10.70;99.40
18694;DHT22;9477;51.414;10.362;2024-03-02T05:44:18;10.70;99.40
18694;DHT22;9477;51.414;10.362;2024-03-02T05:46:21;10.80;99.40
18694;DHT22;9477;51.414;10.362;2024-03-02T05:48:24;10.70;99.30
18694;DHT22;9477;51.414;10.362;2024-03-02T05:50:27;10.70;99.40
18694;DHT22;9477;51.414;10.362;2024-03-02T05:52:30;10.70;99.40
18694;DHT22;9477;51.414;10.362;2024-03-02T05:54:33;10.70;99.80
18694;DHT22;9477;51.414;10.362;2024-03-02T05:56:37;10.80;99.50
18694;DHT22;9477;51.414;10.362;2024-03-02T05:58:41;10.80;99.40
18694;DHT22;9477;51.414;10.362;2024-03-02T06:00:59;10.70;99.40
18694;DHT22;9477;51.414;10.362;2024-03-02T06:03:03;10.70;99.40
18694;DHT22;9477;51.414;10.362;2024-03-02T06:05:07;10.70;99.30
18694;DHT22;9477;51.414;10.362;2024-03-02T06:07:10;10.70;99.30
18694;DHT22;9477;51.414;10.362;2024-03-02T06:09:12;10.60;99.30
18694;DHT22;9477;51.414;10.362;2024-03-02T06:11:15;10.60;99.30
18694;DHT22;9477;51.414;10.362;2024-03-02T06:13:19;10.50;99.30
18694;DHT22;9477;51.414;10.362;2024-03-02T06:15:22;10.50;99.30
18694;DHT22;9477;51.414;10.362;2024-03-02T06:17:24;10.30;99.30
18694;DHT22;9477;51.414;10.362;2024-03-02T06:19:27;10.30;99.60
18694;DHT22;9477;51.414;10.362;2024-03-02T06:21:30;10.40;99.60
18694;DHT22;9477;51.414;10.362;2024-03-02T06:23:35;10.40;99.60
18694;DHT22;9477;51.414;10.362;2024-03-02T06:25:38;10.30;99.60
18694;DHT22;9477;51.414;10.362;2024-03-02T06:27:41;10.40;99.60
18694;DHT22;9477;51.414;10.362;2024-03-02T06:29:45;10.40;99.80
18694;DHT22;9477;51.414;10.362;2024-03-02T06:31:48;10.40;99.40
18694;DHT22;9477;51.414;10.362;2024-03-02T06:33:55;10.40;99.50
18694;DHT22;9477;51.414;10.362;2024-03-02T06:35:58;10.50;99.50
18694;DHT22;9477;51.414;10.362;2024-03-02T06:38:01;10.50;99.50
18694;DHT22;9477;51.414;10.362;2024-03-02T06:40:05;10.50;99.50
18694;DHT22;9477;51.414;10.362;2024-03-02T06:42:09;10.50;99.50
18694;DHT22;9477;51.414;10.362;2024-03-02T06:44:12;10.50;99.50
18694;DHT22;9477;51.414;10.362;2024-03-02T06:46:15;10.50;99.50
18694;DHT22;9477;51.414;10.362;2024-03-02T06:48:18;10.50;99.50
18694;DHT22;9477;51.414;10.362;2024-03-02T06:50:22;10.50;99.70
18694;DHT22;9477;51.414;10.362;2024-03-02T06:52:25;10.50;99.50
18694;DHT22;9477;51.414;10.362;2024-03-02T06:54:27;10.60;99.60
18694;DHT22;9477;51.414;10.362;2024-03-02T06:56:30;10.60;99.60
18694;DHT22;9477;51.414;10.362;2024-03-02T06:58:34;10.60;99.60
18694;DHT22;9477;51.414;10.362;2024-03-02T07:00:37;10.60;99.60
18694;DHT22;9477;51.414;10.362;2024-03-02T07:02:41;10.60;99.70
18694;DHT22;9477;51.414;10.362;2024-03-02T07:04:44;10.60;99.70
18694;DHT22;9477;51.414;10.362;2024-03-02T07:06:47;10.60;99.80
18694;DHT22;9477;51.414;10.362;2024-03-02T07:08:50;10.70;99.80
18694;DHT22;9477;51.414;10.362;2024-03-02T07:10:52;10.70;99.90
18694;DHT22;9477;51.414;10.362;2024-03-02T07:12:55;10.80;99.90
18694;DHT22;9477;51.414;10.362;2024-03-02T07:14:58;10.80;99.90
18694;DHT22;9477;51.414;10.362;2024-03-02T07:17:20;10.80;99.80
18694;DHT22;9477;51.414;10.362;2024-03-02T07:19:24;10.90;99.90
18694;DHT22;9477;51.414;10.362;2024-03-02T07:21:27;10.90;99.90
18694;DHT22;9477;51.414;10.362;2024-03-02T07:23:30;11.00;99.90
18694;DHT22;9477;51.414;10.362;2024-03-02T07:25:33;11.00;99.90
18694;DHT22;9477;51.414;10.362;2024-03-02T07:27:39;11.00;99.90
18694;DHT22;9477;51.414;10.362;2024-03-02T07:29:42;11.00;99.90
18694;DHT22;9477;51.414;10.362;2024-03-02T07:31:45;11.00;99.90
18694;DHT22;9477;51.414;10.362;2024-03-02T07:33:48;11.10;99.90
18694;DHT22;9477;51.414;10.362;2024-03-02T07:35:53;11.10;99.90
18694;DHT22;9477;51.414;10.362;2024-03-02T07:37:56;11.10;99.90
18694;DHT22;9477;51.414;10.362;2024-03-02T07:39:59;11.10;99.90
18694;DHT22;9477;51.414;10.362;2024-03-02T07:42:03;11.20;99.90
18694;DHT22;9477;51.414;10.362;2024-03-02T07:44:05;11.20;99.90
18694;DHT22;9477;51.414;10.362;2024-03-02T07:46:08;11.20;99.90
18694;DHT22;9477;51.414;10.362;2024-03-02T07:48:11;11.20;99.90
18694;DHT22;9477;51.414;10.362;2024-03-02T07:50:14;11.30;99.90
18694;DHT22;9477;51.414;10.362;2024-03-02T07:52:18;11.30;99.90
18694;DHT22;9477;51.414;10.362;2024-03-02T07:54:21;11.30;99.90
18694;DHT22;9477;51.414;10.362;2024-03-02T07:56:23;11.40;99.90
18694;DHT22;9477;51.414;10.362;2024-03-02T07:58:26;11.30;99.90
18694;DHT22;9477;51.414;10.362;2024-03-02T08:00:29;11.40;99.90
18694;DHT22;9477;51.414;10.362;2024-03-02T08:02:32;11.40;99.90
18694;DHT22;9477;51.414;10.362;2024-03-02T08:04:35;11.50;99.90
18694;DHT22;9477;51.414;10.362;2024-03-02T08:06:38;11.50;99.90
18694;DHT22;9477;51.414;10.362;2024-03-02T08:08:43;11.60;99.90
18694;DHT22;9477;51.414;10.362;2024-03-02T08:10:45;11.60;99.90
18694;DHT22;9477;51.414;10.362;2024-03-02T08:12:48;11.60;99.90
18694;DHT22;9477;51.414;10.362;2024-03-02T08:14:51;11.60;99.90
18694;DHT22;9477;51.414;10.362;2024-03-02T08:16:54;11.70;99.90
18694;DHT22;9477;51.414;10.362;2024-03-02T08:18:56;11.80;99.90
18694;DHT22;9477;51.414;10.362;2024-03-02T08:21:00;11.80;99.90
18694;DHT22;9477;51.414;10.362;2024-03-02T08:23:03;11.90;99.90
18694;DHT22;9477;51.414;10.362;2024-03-02T08:25:08;11.90;99.90
18694;DHT22;9477;51.414;10.362;2024-03-02T08:27:10;12.00;99.90
18694;DHT22;9477;51.414;10.362;2024-03-02T08:29:13;12.00;99.90
18694;DHT22;9477;51.414;10.362;2024-03-02T08:31:16;12.00;99.90
18694;DHT22;9477;51.414;10.362;2024-03-02T08:33:19;12.10;99.90
18694;DHT22;9477;51.414;10.362;2024-03-02T08:35:22;12.10;99.90
18694;DHT22;9477;51.414;10.362;2024-03-02T08:37:25;12.20;99.90
18694;DHT22;9477;51.414;10.362;2024-03-02T08:39:28;12.20;99.90
18694;DHT22;9477;51.414;10.362;2024-03-02T08:41:32;12.30;99.90
18694;DHT22;9477;51.414;10.362;2024-03-02T08:43:35;12.30;99.90
18694;DHT22;9477;51.414;10.362;2024-03-02T08:45:38;12.40;99.90
18694;DHT22;9477;51.414;10.362;2024-03-02T08:47:42;12.50;99.90
18694;DHT22;9477;51.414;10.362;2024-03-02T08:49:46;12.50;99.90
18694;DHT22;9477;51.414;10.362;2024-03-02T08:51:48;12.50;99.90
18694;DHT22;9477;51.414;10.362;2024-03-02T08:53:57;12.50;99.90
18694;DHT22;9477;51.414;10.362;2024-03-02T08:56:00;12.60;99.90
18694;DHT22;9477;51.414;10.362;2024-03-02T08:58:06;12.60;99.90
18694;DHT22;9477;51.414;10.362;2024-03-02T09:00:13;12.70;99.90
18694;DHT22;9477;51.414;10.362;2024-03-02T09:02:16;12.70;99.90
18694;DHT22;9477;51.414;10.362;2024-03-02T09:04:19;12.80;99.90
18694;DHT22;9477;51.414;10.362;2024-03-02T09:06:25;12.90;99.90
18694;DHT22;9477;51.414;10.362;2024-03-02T09:08:28;12.90;99.90
18694;DHT22;9477;51.414;10.362;2024-03-02T09:10:31;12.90;99.90
18694;DHT22;9477;51.414;10.362;2024-03-02T09:12:34;13.00;99.90
18694;DHT22;9477;51.414;10.362;2024-03-02T09:14:39;13.00;99.90
18694;DHT22;9477;51.414;10.362;2024-03-02T09:16:43;13.00;99.90
18694;DHT22;9477;51.414;10.362;2024-03-02T09:18:46;13.10;99.90
18694;DHT22;9477;51.414;10.362;2024-03-02T09:20:50;13.20;99.90
18694;DHT22;9477;51.414;10.362;2024-03-02T09:22:54;13.20;99.90
18694;DHT22;9477;51.414;10.362;2024-03-02T09:24:57;13.30;99.90
18694;DHT22;9477;51.414;10.362;2024-03-02T09:27:00;13.30;99.90
18694;DHT22;9477;51.414;10.362;2024-03-02T09:29:03;13.40;99.90
18694;DHT22;9477;51.414;10.362;2024-03-02T09:31:07;13.40;99.90
18694;DHT22;9477;51.414;10.362;2024-03-02T09:33:10;13.50;99.90
18694;DHT22;9477;51.414;10.362;2024-03-02T09:35:16;13.50;99.90
18694;DHT22;9477;51.414;10.362;2024-03-02T09:37:19;13.60;99.90
18694;DHT22;9477;51.414;10.362;2024-03-02T09:39:22;13.60;99.90
18694;DHT22;9477;51.414;10.362;2024-03-02T09:41:27;13.60;99.90
18694;DHT22;9477;51.414;10.362;2024-03-02T09:43:30;13.70;99.90
18694;DHT22;9477;51.414;10.362;2024-03-02T09:45:33;13.70;99.90
18694;DHT22;9477;51.414;10.362;2024-03-02T09:47:38;13.70;99.90
18694;DHT22;9477;51.414;10.362;2024-03-02T09:49:41;13.80;99.90
18694;DHT22;9477;51.414;10.362;2024-03-02T09:51:47;13.80;99.90
18694;DHT22;9477;51.414;10.362;2024-03-02T09:53:50;13.80;99.90
18694;DHT22;9477;51.414;10.362;2024-03-02T09:55:57;13.80;99.80
18694;DHT22;9477;51.414;10.362;2024-03-02T09:58:00;13.90;99.90
18694;DHT22;9477;51.414;10.362;2024-03-02T10:00:04;13.90;99.90
18694;DHT22;9477;51.414;10.362;2024-03-02T10:02:07;14.00;99.80
18694;DHT22;9477;51.414;10.362;2024-03-02T10:04:12;14.00;99.90
18694;DHT22;9477;51.414;10.362;2024-03-02T10:06:19;14.00;99.60
18694;DHT22;9477;51.414;10.362;2024-03-02T10:08:22;14.10;99.60
18694;DHT22;9477;51.414;10.362;2024-03-02T10:10:34;14.10;99.50
18694;DHT22;9477;51.414;10.362;2024-03-02T10:12:36;14.10;99.50
18694;DHT22;9477;51.414;10.362;2024-03-02T10:14:39;14.20;99.40
18694;DHT22;9477;51.414;10.362;2024-03-02T10:16:43;14.10;99.30
18694;DHT22;9477;51.414;10.362;2024-03-02T10:18:46;14.20;99.60
18694;DHT22;9477;51.414;10.362;2024-03-02T10:20:49;14.20;99.40
18694;DHT22;9477;51.414;10.362;2024-03-02T10:22:52;14.20;99.40
18694;DHT22;9477;51.414;10.362;2024-03-02T10:24:55;14.30;99.50
18694;DHT22;9477;51.414;10.362;2024-03-02T10:27:00;14.30;99.30
18694;DHT22;9477;51.414;10.362;2024-03-02T10:29:02;14.30;99.30
18694;DHT22;9477;51.414;10.362;2024-03-02T10:31:05;14.40;99.20
18694;DHT22;9477;51.414;10.362;2024-03-02T10:33:09;14.40;99.20
18694;DHT22;9477;51.414;10.362;2024-03-02T10:35:12;14.40;99.40
18694;DHT22;9477;51.414;10.362;2024-03-02T10:37:17;14.50;99.50
18694;DHT22;9477;51.414;10.362;2024-03-02T10:39:23;14.50;99.30
18694;DHT22;9477;51.414;10.362;2024-03-02T10:41:27;14.50;99.20
18694;DHT22;9477;51.414;10.362;2024-03-02T10:43:30;14.60;99.20
18694;DHT22;9477;51.414;10.362;2024-03-02T10:45:33;14.60;99.20
18694;DHT22;9477;51.414;10.362;2024-03-02T10:47:37;14.60;99.20
18694;DHT22;9477;51.414;10.362;2024-03-02T10:49:42;14.60;99.10
18694;DHT22;9477;51.414;10.362;2024-03-02T10:51:45;14.60;99.10
18694;DHT22;9477;51.414;10.362;2024-03-02T10:53:48;14.60;98.90
18694;DHT22;9477;51.414;10.362;2024-03-02T10:55:55;14.60;99.00
18694;DHT22;9477;51.414;10.362;2024-03-02T10:58:04;14.70;99.10
18694;DHT22;9477;51.414;10.362;2024-03-02T11:00:12;14.60;98.90
18694;DHT22;9477;51.414;10.362;2024-03-02T11:02:17;14.60;98.90
18694;DHT22;9477;51.414;10.362;2024-03-02T11:04:24;14.60;98.90
18694;DHT22;9477;51.414;10.362;2024-03-02T11:06:28;14.70;99.20
18694;DHT22;9477;51.414;10.362;2024-03-02T11:08:36;14.80;99.00
18694;DHT22;9477;51.414;10.362;2024-03-02T11:10:48;14.80;98.80
18694;DHT22;9477;51.414;10.362;2024-03-02T11:12:57;14.90;98.70
18694;DHT22;9477;51.414;10.362;2024-03-02T11:15:03;14.90;98.90
18694;DHT22;9477;51.414;10.362;2024-03-02T11:17:06;14.90;98.80
18694;DHT22;9477;51.414;10.362;2024-03-02T11:19:10;14.90;98.70
18694;DHT22;9477;51.414;10.362;2024-03-02T11:21:17;14.90;98.80
18694;DHT22;9477;51.414;10.362;2024-03-02T11:23:31;14.90;98.90
18694;DHT22;9477;51.414;10.362;2024-03-02T11:25:35;15.00;98.50
18694;DHT22;9477;51.414;10.362;2024-03-02T11:28:03;15.00;98.60
18694;DHT22;9477;51.414;10.362;2024-03-02T11:30:07;15.10;98.60
18694;DHT22;9477;51.414;10.362;2024-03-02T11:32:14;15.00;98.40
18694;DHT22;9477;51.414;10.362;2024-03-02T11:34:18;15.00;98.50
18694;DHT22;9477;51.414;10.362;2024-03-02T11:36:31;15.00;98.50
18694;DHT22;9477;51.414;10.362;2024-03-02T11:38:35;15.10;98.80
18694;DHT22;9477;51.414;10.362;2024-03-02T11:40:39;15.20;98.80
18694;DHT22;9477;51.414;10.362;2024-03-02T11:42:42;15.30;98.80
18694;DHT22;9477;51.414;10.362;2024-03-02T11:44:48;15.30;98.40
18694;DHT22;9477;51.414;10.362;2024-03-02T11:46:53;15.30;98.50
18694;DHT22;9477;51.414;10.362;2024-03-02T11:49:00;15.40;98.30
18694;DHT22;9477;51.414;10.362;2024-03-02T11:51:04;15.40;98.20
18694;DHT22;9477;51.414;10.362;2024-03-02T11:53:08;15.40;98.30
18694;DHT22;9477;51.414;10.362;2024-03-02T11:55:11;15.50;97.90
18694;DHT22;9477;51.414;10.362;2024-03-02T11:57:16;15.50;98.10
18694;DHT22;9477;51.414;10.362;2024-03-02T11:59:19;15.50;98.10
18694;DHT22;9477;51.414;10.362;2024-03-02T12:01:23;15.60;98.00
18694;DHT22;9477;51.414;10.362;2024-03-02T12:03:26;15.60;98.10
18694;DHT22;9477;51.414;10.362;2024-03-02T12:05:31;15.70;98.10
18694;DHT22;9477;51.414;10.362;2024-03-02T12:07:34;15.70;98.10
18694;DHT22;9477;51.414;10.362;2024-03-02T12:09:37;15.80;97.70
18694;DHT22;9477;51.414;10.362;2024-03-02T12:11:40;15.90;98.00
18694;DHT22;9477;51.414;10.362;2024-03-02T12:13:52;15.90;97.80
18694;DHT22;9477;51.414;10.362;2024-03-02T12:15:56;16.00;98.00
18694;DHT22;9477;51.414;10.362;2024-03-02T12:18:02;16.00;97.80
18694;DHT22;9477;51.414;10.362;2024-03-02T12:20:05;16.00;97.80
18694;DHT22;9477;51.414;10.362;2024-03-02T12:22:08;16.10;97.80
18694;DHT22;9477;51.414;10.362;2024-03-02T12:24:11;16.10;97.70
18694;DHT22;9477;51.414;10.362;2024-03-02T12:26:14;16.10;97.60
18694;DHT22;9477;51.414;10.362;2024-03-02T12:28:22;16.00;97.60
18694;DHT22;9477;51.414;10.362;2024-03-02T12:30:27;16.10;97.60
18694;DHT22;9477;51.414;10.362;2024-03-02T12:32:31;16.00;97.40
18694;DHT22;9477;51.414;10.362;2024-03-02T12:34:38;16.10;97.90
18694;DHT22;9477;51.414;10.362;2024-03-02T12:36:41;16.10;97.60
18694;DHT22;9477;51.414;10.362;2024-03-02T12:38:44;16.20;97.90
18694;DHT22;9477;51.414;10.362;2024-03-02T12:40:51;16.20;97.50
18694;DHT22;9477;51.414;10.362;2024-03-02T12:42:54;16.20;97.90
18694;DHT22;9477;51.414;10.362;2024-03-02T12:44:57;16.20;97.50
18694;DHT22;9477;51.414;10.362;2024-03-02T12:47:00;16.20;97.40
18694;DHT22;9477;51.414;10.362;2024-03-02T12:49:08;16.20;97.50
18694;DHT22;9477;51.414;10.362;2024-03-02T12:51:14;16.20;97.40
18694;DHT22;9477;51.414;10.362;2024-03-02T12:53:17;16.30;97.50
18694;DHT22;9477;51.414;10.362;2024-03-02T12:55:20;16.30;97.70
18694;DHT22;9477;51.414;10.362;2024-03-02T12:57:25;16.40;97.90
18694;DHT22;9477;51.414;10.362;2024-03-02T12:59:31;16.50;97.60
18694;DHT22;9477;51.414;10.362;2024-03-02T13:01:34;16.50;97.50
18694;DHT22;9477;51.414;10.362;2024-03-02T13:03:38;16.50;97.60